createdAt,value
2019-02-27T00:06:25.228Z,2.07
2019-02-27T00:16:30.414Z,1.86
2019-02-27T00:26:35.614Z,1.80
2019-02-27T00:36:44.871Z,1.69
2019-02-27T00:46:47.593Z,1.48
2019-02-27T00:56:52.923Z,1.05
2019-02-27T01:06:58.293Z,0.84
2019-02-27T01:17:03.573Z,0.78
2019-02-27T01:27:09.069Z,0.60
2019-02-27T01:37:13.878Z,0.60
2019-02-27T01:47:20.055Z,0.48
2019-02-27T01:57:25.041Z,0.52
2019-02-27T02:07:30.352Z,0.49
2019-02-27T02:18:01.198Z,0.46
2019-02-27T02:28:30.752Z,0.51
2019-02-27T02:38:50.906Z,0.09
2019-02-27T02:49:06.216Z,-0.19
2019-02-27T02:59:31.075Z,-0.08
2019-02-27T03:09:58.710Z,-0.48
2019-02-27T03:20:34.322Z,-0.45
2019-02-27T03:30:45.480Z,-0.78
2019-02-27T03:41:08.739Z,-0.92
2019-02-27T03:52:00.093Z,-1.01
2019-02-27T04:02:08.752Z,-1.07
2019-02-27T04:12:16.639Z,-1.15
2019-02-27T04:22:21.125Z,-1.24
2019-02-27T04:32:26.309Z,-1.35
2019-02-27T04:42:31.605Z,-1.39
2019-02-27T04:52:36.847Z,-1.38
2019-02-27T05:02:42.075Z,-1.38
2019-02-27T05:12:48.176Z,-1.55
2019-02-27T05:22:54.136Z,-1.66
2019-02-27T05:33:02.056Z,-1.66
2019-02-27T05:43:05.756Z,-1.60
2019-02-27T05:53:11.533Z,-1.77
2019-02-27T06:03:18.323Z,-1.70
2019-02-27T06:13:23.336Z,-1.38
2019-02-27T06:23:28.478Z,-1.54
2019-02-27T06:33:33.796Z,-0.81
2019-02-27T06:43:38.892Z,-0.60
2019-02-27T06:53:43.953Z,0.35
2019-02-27T07:03:49.031Z,2.65
2019-02-27T07:13:54.346Z,4.24
2019-02-27T07:23:59.546Z,5.50
2019-02-27T07:34:05.196Z,6.64
2019-02-27T07:44:10.299Z,7.90
2019-02-27T07:54:15.407Z,8.94
2019-02-27T08:04:22.866Z,10.86
2019-02-27T08:14:27.232Z,11.44
2019-02-27T08:24:33.686Z,12.30
2019-02-27T08:34:38.885Z,12.93
2019-02-27T08:44:45.751Z,13.89
2019-02-27T08:54:50.888Z,15.20
2019-02-27T09:04:56.032Z,12.85
2019-02-27T09:15:01.139Z,12.29
2019-02-27T09:25:08.310Z,13.20
2019-02-27T09:35:13.431Z,12.97
2019-02-27T09:45:30.201Z,15.33
2019-02-27T09:55:35.291Z,15.48
2019-02-27T10:05:40.779Z,16.08
2019-02-27T10:15:45.916Z,16.38
2019-02-27T10:25:51.036Z,16.59
2019-02-27T10:35:56.273Z,17.18
2019-02-27T10:46:01.358Z,17.11
2019-02-27T10:56:06.144Z,18.42
2019-02-27T11:06:11.007Z,17.83
2019-02-27T11:16:20.840Z,16.47
2019-02-27T11:26:23.285Z,17.75
2019-02-27T11:36:28.378Z,15.45
2019-02-27T11:46:35.112Z,16.25
2019-02-27T11:56:40.328Z,15.05
2019-02-27T12:06:45.540Z,15.21
2019-02-27T12:16:51.775Z,16.82
2019-02-27T12:26:57.663Z,16.44
2019-02-27T12:37:02.889Z,16.53
2019-02-27T12:47:08.080Z,16.82
2019-02-27T12:57:17.379Z,16.52
2019-02-27T13:07:19.888Z,15.34
2019-02-27T13:17:25.199Z,14.73
2019-02-27T13:27:31.331Z,13.63
2019-02-27T13:37:36.512Z,13.23
2019-02-27T13:47:41.809Z,12.81
2019-02-27T13:57:47.008Z,12.59
2019-02-27T14:07:57.294Z,12.13
2019-02-27T14:17:58.714Z,11.89
2019-02-27T14:28:04.247Z,11.83
2019-02-27T14:38:10.558Z,11.89
2019-02-27T14:48:21.428Z,11.74
2019-02-27T14:58:25.670Z,11.78
2019-02-27T15:08:30.753Z,11.13
2019-02-27T15:18:35.880Z,10.78
2019-02-27T15:28:41.698Z,10.43
2019-02-27T15:38:47.021Z,10.27
2019-02-27T15:48:52.128Z,10.13
2019-02-27T15:58:59.387Z,10.12
2019-02-27T16:09:04.182Z,9.86
2019-02-27T16:19:11.582Z,9.59
2019-02-27T16:29:16.757Z,9.29
2019-02-27T16:39:21.879Z,9.03
2019-02-27T16:49:27.293Z,8.82
2019-02-27T16:59:32.667Z,8.60
2019-02-27T17:09:38.151Z,8.29
2019-02-27T17:19:43.581Z,8.03
2019-02-27T17:29:48.751Z,7.90
2019-02-27T17:39:54.198Z,7.76
2019-02-27T17:49:59.717Z,7.54
2019-02-27T18:00:08.784Z,7.44
2019-02-27T18:10:15.382Z,7.11
2019-02-27T18:20:24.474Z,6.54
2019-02-27T18:30:28.272Z,6.37
2019-02-27T18:40:33.774Z,6.15
2019-02-27T18:50:39.256Z,6.00
2019-02-27T19:00:44.874Z,5.94
2019-02-27T19:10:53.573Z,5.68
2019-02-27T19:21:00.255Z,5.48
2019-02-27T19:31:06.229Z,5.49
2019-02-27T19:41:11.584Z,5.48
2019-02-27T19:51:20.070Z,5.51
2019-02-27T20:12:23.036Z,5.14
2019-02-27T20:22:28.647Z,5.10
2019-02-27T20:32:34.157Z,4.92
2019-02-27T20:42:39.756Z,4.68
2019-02-27T20:52:46.556Z,4.86
2019-02-27T21:02:53.433Z,5.03
2019-02-27T21:12:59.657Z,5.35
2019-02-27T21:23:05.942Z,5.40
2019-02-27T21:33:11.996Z,5.46
2019-02-27T21:43:17.500Z,5.45
2019-02-27T21:53:22.782Z,5.34
2019-02-27T22:03:27.960Z,5.38
2019-02-27T22:13:33.387Z,5.25
2019-02-27T22:23:39.523Z,5.28
2019-02-27T22:33:44.589Z,5.37
2019-02-27T22:43:49.691Z,5.06
2019-02-27T22:53:54.716Z,5.51
2019-02-27T23:03:59.901Z,5.79
2019-02-27T23:14:05.239Z,5.38
2019-02-27T23:24:10.990Z,5.18
2019-02-27T23:34:16.007Z,4.73
2019-02-27T23:44:22.059Z,4.84
2019-02-27T23:54:27.198Z,4.92
